Deep River, Iowa
Current Conditions -  °F | °C
As of 6:15 PM on Friday 24 Oct 2014 (Local Time) from KGGI Reporting Station
Haze Haze  
Wind Chill: 62°   Ceiling: 1700
Heat Index: 62°   Visibility: 5mi
Dew Point: 59°   Wind: 5mph
Humidity: 90%   Direction: 190°S
Pressure: 29.92"   Gusts: NA
Location:  41.58°N, 92.37°W
Report Text: KGGI 242315Z AUTO 19004KT 5SM BR OVC017 17/15 A2992 RMK AO2 T01650148
Loading
Personal Weather Stations






























Interactive Weather Map
Tropical Storm Tracking
New forecast layout! Learn more

10-Day Weather Forecast

Advertisements
Track Severe Weather on mobile